Orbital elements of COSMOS 970 DEB
| Launched | 20 December 1977 |
| Flight ended | – |
| Launch site | Tyuratam Missile and Space Center, Kazakhstan (Also known as Baikonur Cosmodrome) |
| Owner | Commonwealth of Independent States (former USSR) |
| NORAD ID | 14444 |
| Date fetched |
Epoch osculation |
Inc. [°] |
Ecc. | RA asc node [hr] |
Arg Peri. [°] |
Mean anom [°] |
Mean motion [rev/day] |
Abs. mag |
| Date fetched |
Epoch osculation |
Inc. [°] |
Ecc. | RA asc node [hr] |
Arg Peri. [°] |
Mean anom [°] |
Mean motion [rev/day] |
Abs. mag |
| 2026 May 03 17:57 | 2026 Apr 29 14:06:33 | 65.7980 | 0.00578 | 21.8189 | 338.7795 | 52.5762 | 13.77574 | – |
| 2026 May 02 17:57 | 2026 Apr 29 14:06:33 | 65.7980 | 0.00578 | 21.8189 | 338.7795 | 52.5762 | 13.77574 | – |
| 2026 May 01 17:56 | 2026 Apr 29 14:06:33 | 65.7980 | 0.00578 | 21.8189 | 338.7795 | 52.5762 | 13.77574 | – |
| 2026 Apr 30 17:56 | 2026 Apr 29 14:06:33 | 65.7980 | 0.00578 | 21.8189 | 338.7795 | 52.5762 | 13.77574 | – |
| 2026 Apr 29 17:57 | 2026 Apr 23 01:52:40 | 65.7984 | 0.00577 | 22.8972 | 341.5968 | 52.5762 | 13.77574 | – |
| 2026 Apr 28 17:56 | 2026 Apr 23 01:52:40 | 65.7984 | 0.00577 | 22.8972 | 341.5968 | 52.5762 | 13.77574 | – |
| 2026 Apr 27 17:58 | 2026 Apr 23 01:52:40 | 65.7984 | 0.00577 | 22.8972 | 341.5968 | 52.5762 | 13.77574 | – |
| 2026 Apr 26 17:58 | 2026 Apr 23 01:52:40 | 65.7984 | 0.00577 | 22.8972 | 341.5968 | 52.5762 | 13.77574 | – |
| 2026 Apr 25 17:58 | 2026 Apr 23 01:52:40 | 65.7984 | 0.00577 | 22.8972 | 341.5968 | 52.5762 | 13.77574 | – |
| 2026 Apr 24 17:59 | 2026 Apr 23 01:52:40 | 65.7984 | 0.00577 | 22.8972 | 341.5968 | 52.5762 | 13.77574 | – |
| 2026 Apr 23 17:57 | 2026 Apr 19 02:01:45 | 65.7990 | 0.00576 | 23.5588 | 343.2029 | 52.5762 | 13.77574 | – |
| 2026 Apr 22 17:57 | 2026 Apr 19 02:01:45 | 65.7990 | 0.00576 | 23.5588 | 343.2029 | 52.5762 | 13.77574 | – |
| 2026 Apr 21 17:57 | 2026 Apr 19 02:01:45 | 65.7990 | 0.00576 | 23.5588 | 343.2029 | 52.5762 | 13.77574 | – |
| 2026 Apr 20 17:57 | 2026 Apr 19 02:01:45 | 65.7990 | 0.00576 | 23.5588 | 343.2029 | 52.5762 | 13.77574 | – |
| 2026 Apr 19 17:58 | 2026 Apr 19 02:01:45 | 65.7990 | 0.00576 | 23.5588 | 343.2029 | 52.5762 | 13.77574 | – |
| 2026 Apr 18 17:56 | 2026 Apr 13 03:10:30 | 65.7992 | 0.00575 | 0.5448 | 345.4440 | 52.5762 | 13.77574 | – |
| 2026 Apr 16 17:57 | 2026 Apr 13 03:10:30 | 65.7992 | 0.00575 | 0.5448 | 345.4440 | 52.5762 | 13.77574 | – |
| 2026 Apr 14 17:57 | 2026 Apr 13 03:10:30 | 65.7992 | 0.00575 | 0.5448 | 345.4440 | 52.5762 | 13.77574 | – |
| 2026 Apr 13 17:57 | 2026 Apr 13 03:10:30 | 65.7992 | 0.00575 | 0.5448 | 345.4440 | 52.5762 | 13.77574 | – |
| 2026 Apr 12 17:57 | 2026 Apr 08 04:41:38 | 65.7993 | 0.00573 | 1.3625 | 347.2231 | 52.5762 | 13.77574 | – |
| 2026 Apr 11 17:57 | 2026 Apr 08 04:41:38 | 65.7993 | 0.00573 | 1.3625 | 347.2231 | 52.5762 | 13.77574 | – |
| 2026 Apr 10 17:58 | 2026 Apr 08 04:41:38 | 65.7993 | 0.00573 | 1.3625 | 347.2231 | 52.5762 | 13.77574 | – |
| 2026 Apr 09 18:01 | 2026 Apr 08 04:41:38 | 65.7993 | 0.00573 | 1.3625 | 347.2231 | 52.5762 | 13.77574 | – |
| 2026 Apr 08 17:57 | 2026 Apr 08 04:41:38 | 65.7993 | 0.00573 | 1.3625 | 347.2231 | 52.5762 | 13.77574 | – |
| 2026 Apr 07 17:57 | 2026 Apr 01 22:28:14 | 65.7986 | 0.00569 | 2.3993 | 349.5603 | 52.5762 | 13.77574 | – |
| 2026 Apr 06 17:57 | 2026 Apr 01 22:28:14 | 65.7986 | 0.00569 | 2.3993 | 349.5603 | 52.5762 | 13.77574 | – |